createdAt,value
2018-09-04T00:02:21.444Z,0.30
2018-09-04T00:04:50.397Z,0.23
2018-09-04T00:07:21.262Z,0.20
2018-09-04T00:09:50.575Z,0.27
2018-09-04T00:12:19.786Z,0.30
2018-09-04T00:14:48.962Z,0.40
2018-09-04T00:17:18.051Z,0.20
2018-09-04T00:19:47.014Z,0.30
2018-09-04T00:22:15.987Z,0.40
2018-09-04T00:24:45.060Z,0.30
2018-09-04T00:27:14.203Z,0.20
2018-09-04T00:29:43.171Z,0.10
2018-09-04T00:32:12.367Z,0.30
2018-09-04T00:34:41.524Z,0.30
2018-09-04T00:37:10.698Z,0.23
2018-09-04T00:39:39.736Z,0.40
2018-09-04T00:42:08.664Z,0.30
2018-09-04T00:44:37.619Z,0.20
2018-09-04T00:47:06.580Z,0.30
2018-09-04T00:49:35.567Z,0.30
2018-09-04T00:52:04.563Z,0.20
2018-09-04T00:54:33.490Z,0.30
2018-09-04T00:57:02.423Z,0.27
2018-09-04T00:59:31.466Z,0.20
2018-09-04T01:02:00.485Z,0.20
2018-09-04T01:04:29.549Z,0.30
2018-09-04T01:06:58.504Z,0.20
2018-09-04T01:09:27.417Z,0.30
2018-09-04T01:11:56.335Z,0.20
2018-09-04T01:14:25.279Z,0.30
2018-09-04T01:16:54.208Z,0.20
2018-09-04T01:19:23.154Z,0.30
2018-09-04T01:21:52.379Z,0.20
2018-09-04T01:24:21.915Z,0.20
2018-09-04T01:26:50.871Z,0.30
2018-09-04T01:29:19.852Z,0.40
2018-09-04T01:31:48.799Z,0.20
2018-09-04T01:34:17.839Z,0.20
2018-09-04T01:36:46.874Z,0.30
2018-09-04T01:39:15.816Z,0.10
2018-09-04T01:41:44.755Z,0.30
2018-09-04T01:44:13.704Z,0.17
2018-09-04T01:46:42.649Z,0.10
2018-09-04T01:49:11.579Z,0.23
2018-09-04T01:51:40.675Z,0.30
2018-09-04T01:54:09.781Z,0.20
2018-09-04T01:56:38.776Z,0.20
2018-09-04T01:59:07.706Z,0.20
2018-09-04T02:01:36.795Z,0.40
2018-09-04T02:04:05.826Z,0.20
2018-09-04T02:06:34.757Z,0.20
2018-09-04T02:09:04.372Z,0.20
2018-09-04T02:11:33.384Z,0.30
2018-09-04T02:14:02.393Z,0.27
2018-09-04T02:16:31.388Z,0.20
2018-09-04T02:19:00.368Z,0.40
2018-09-04T02:21:29.320Z,0.20
2018-09-04T02:23:58.271Z,0.20
2018-09-04T02:26:27.225Z,0.20
2018-09-04T02:28:56.269Z,0.20
2018-09-04T02:31:25.324Z,0.20
2018-09-04T02:33:54.307Z,0.20
2018-09-04T02:36:23.255Z,0.10
2018-09-04T02:38:52.252Z,0.27
2018-09-04T02:41:21.190Z,0.20
2018-09-04T02:43:50.161Z,0.30
2018-09-04T02:46:19.103Z,0.10
2018-09-04T02:48:48.081Z,0.30
2018-09-04T02:51:17.027Z,0.20
2018-09-04T02:53:45.970Z,0.10
2018-09-04T02:56:14.919Z,0.33
2018-09-04T02:58:43.911Z,0.20
2018-09-04T03:01:12.846Z,0.30
2018-09-04T03:03:41.777Z,0.30
2018-09-04T03:06:10.792Z,0.30
2018-09-04T03:08:39.751Z,0.23
2018-09-04T03:11:08.709Z,0.30
2018-09-04T03:13:37.752Z,0.30
2018-09-04T03:16:07.055Z,0.33
2018-09-04T03:18:36.270Z,0.20
2018-09-04T03:21:05.203Z,0.30
2018-09-04T03:23:34.231Z,0.50
2018-09-04T03:26:03.150Z,0.30
2018-09-04T03:28:32.149Z,0.30
2018-09-04T03:31:01.105Z,0.20
2018-09-04T03:33:30.148Z,0.20
2018-09-04T03:35:59.100Z,0.37
2018-09-04T03:38:28.115Z,0.20
2018-09-04T03:40:57.211Z,0.30
2018-09-04T03:43:26.153Z,0.20
2018-09-04T03:45:55.246Z,0.20
2018-09-04T03:48:24.185Z,0.30
2018-09-04T03:50:53.305Z,0.20
2018-09-04T03:53:22.296Z,0.30
2018-09-04T03:55:51.254Z,0.30
2018-09-04T03:58:20.239Z,0.30
2018-09-04T04:00:50.157Z,0.20
2018-09-04T04:03:19.099Z,0.20
2018-09-04T04:05:48.048Z,0.37
2018-09-04T04:08:17.046Z,0.37
2018-09-04T04:10:46.091Z,0.30
2018-09-04T04:13:15.133Z,0.40
2018-09-04T04:15:44.117Z,0.30
2018-09-04T04:18:13.106Z,0.30
2018-09-04T04:20:46.534Z,0.23
2018-09-04T04:23:15.526Z,0.10
2018-09-04T04:25:44.493Z,0.30
2018-09-04T04:28:13.441Z,0.27
2018-09-04T04:30:42.419Z,0.30
2018-09-04T04:33:11.398Z,0.30
2018-09-04T04:35:40.486Z,0.40
2018-09-04T04:38:09.446Z,0.30
2018-09-04T04:40:38.632Z,0.30
2018-09-04T04:43:07.644Z,0.30
2018-09-04T04:45:36.590Z,0.23
2018-09-04T04:48:05.603Z,0.20
2018-09-04T04:50:35.006Z,0.37
2018-09-04T04:53:04.045Z,0.23
2018-09-04T04:55:33.088Z,0.20
2018-09-04T04:58:02.348Z,0.13
2018-09-04T05:00:31.647Z,0.27
2018-09-04T05:03:00.515Z,0.20
2018-09-04T05:05:29.472Z,0.20
2018-09-04T05:07:58.420Z,0.30
2018-09-04T05:10:27.395Z,0.20
2018-09-04T05:12:56.452Z,0.30
2018-09-04T05:15:25.402Z,0.17
2018-09-04T05:17:54.376Z,0.20
2018-09-04T05:20:25.558Z,0.20
2018-09-04T05:22:54.634Z,0.20
2018-09-04T05:25:23.871Z,0.30
2018-09-04T05:27:52.810Z,0.30
2018-09-04T05:30:21.870Z,0.30
2018-09-04T05:32:56.408Z,0.20
2018-09-04T05:35:25.473Z,0.20
2018-09-04T05:37:54.472Z,0.20
2018-09-04T05:40:23.415Z,0.20
2018-09-04T05:42:57.469Z,0.20
2018-09-04T05:45:28.409Z,0.20
2018-09-04T05:48:03.655Z,0.17
2018-09-04T05:50:32.842Z,0.30
2018-09-04T05:53:01.811Z,0.30
2018-09-04T05:55:30.792Z,0.20
2018-09-04T05:57:59.763Z,0.20
2018-09-04T06:00:31.178Z,0.20
2018-09-04T06:03:00.155Z,0.30
2018-09-04T06:05:29.105Z,0.47
2018-09-04T06:07:58.056Z,0.30
2018-09-04T06:10:27.178Z,0.20
2018-09-04T06:12:56.100Z,0.20
2018-09-04T06:15:25.140Z,0.20
2018-09-04T06:17:54.112Z,0.20
2018-09-04T06:20:23.130Z,0.30
2018-09-04T06:22:52.106Z,0.20
2018-09-04T06:25:21.094Z,0.30
2018-09-04T06:27:50.053Z,0.23
2018-09-04T06:30:19.037Z,0.20
2018-09-04T06:32:48.038Z,0.20
2018-09-04T06:35:17.011Z,0.20
2018-09-04T06:37:45.976Z,0.20
2018-09-04T06:40:14.928Z,0.20
2018-09-04T06:42:43.917Z,0.20
2018-09-04T06:45:12.977Z,0.30
2018-09-04T06:47:43.277Z,0.30
2018-09-04T06:50:12.356Z,0.30
2018-09-04T06:52:41.527Z,0.30
2018-09-04T06:55:11.344Z,0.30
2018-09-04T06:57:40.621Z,0.30
2018-09-04T07:00:12.339Z,0.50
2018-09-04T07:02:41.269Z,0.30
2018-09-04T07:05:11.242Z,0.40
2018-09-04T07:07:40.781Z,0.40
2018-09-04T07:10:10.392Z,0.30
2018-09-04T07:12:39.684Z,0.40
2018-09-04T07:15:08.823Z,0.37
2018-09-04T07:17:37.981Z,0.30
2018-09-04T07:20:07.120Z,0.40
2018-09-04T07:22:36.074Z,0.47
2018-09-04T07:25:05.093Z,0.30
2018-09-04T07:27:34.097Z,0.40
2018-09-04T07:30:03.056Z,0.30
2018-09-04T07:32:32.050Z,0.37
2018-09-04T07:35:01.008Z,0.40
2018-09-04T07:37:29.941Z,0.40
2018-09-04T07:39:58.944Z,0.30
2018-09-04T07:42:27.927Z,0.50
2018-09-04T07:44:56.898Z,0.40
2018-09-04T07:47:25.867Z,0.47
2018-09-04T07:49:54.905Z,0.40
2018-09-04T07:52:23.870Z,0.30
2018-09-04T07:54:52.809Z,0.50
2018-09-04T07:57:21.765Z,0.43
2018-09-04T07:59:50.702Z,0.30
2018-09-04T08:02:19.653Z,0.40
2018-09-04T08:04:48.673Z,0.40
2018-09-04T08:07:17.659Z,0.40
2018-09-04T08:09:46.634Z,0.40
2018-09-04T08:12:15.647Z,0.50
2018-09-04T08:14:44.569Z,0.33
2018-09-04T08:17:13.534Z,0.40
2018-09-04T08:19:42.526Z,0.40
2018-09-04T08:22:11.474Z,0.53
2018-09-04T08:24:40.439Z,0.50
2018-09-04T08:27:09.358Z,0.30
2018-09-04T08:29:38.331Z,0.50
2018-09-04T08:32:07.287Z,0.50
2018-09-04T08:34:36.238Z,0.50
2018-09-04T08:37:05.201Z,0.53
2018-09-04T08:39:34.152Z,0.45
2018-09-04T08:42:03.129Z,0.50
2018-09-04T08:44:32.058Z,0.50
2018-09-04T08:47:01.030Z,0.50
2018-09-04T08:49:29.924Z,0.70
2018-09-04T08:51:58.913Z,0.47
2018-09-04T08:54:28.113Z,0.50
2018-09-04T08:56:57.954Z,0.40
2018-09-04T08:59:27.123Z,0.50
2018-09-04T09:01:56.151Z,0.45
2018-09-04T09:04:25.136Z,0.50
2018-09-04T09:06:54.180Z,0.47
2018-09-04T09:09:23.126Z,0.33
2018-09-04T09:11:52.104Z,0.68
2018-09-04T09:14:21.030Z,0.50
2018-09-04T09:16:50.051Z,0.40
2018-09-04T09:19:18.998Z,0.60
2018-09-04T09:21:47.920Z,0.45
2018-09-04T09:24:16.969Z,0.42
2018-09-04T09:26:45.938Z,0.50
2018-09-04T09:29:14.892Z,0.42
2018-09-04T09:31:43.906Z,0.50
2018-09-04T09:34:12.904Z,0.47
2018-09-04T09:36:41.987Z,0.50
2018-09-04T09:39:11.283Z,0.50
2018-09-04T09:41:40.474Z,0.57
2018-09-04T09:44:09.504Z,0.50
2018-09-04T09:46:38.474Z,0.70
2018-09-04T09:49:07.490Z,0.60
2018-09-04T09:51:36.464Z,0.50
2018-09-04T09:54:05.498Z,0.50
2018-09-04T09:56:34.433Z,0.60
2018-09-04T09:59:03.378Z,0.65
2018-09-04T10:01:36.622Z,0.60
2018-09-04T10:04:07.101Z,0.50
2018-09-04T10:06:35.954Z,0.60
2018-09-04T10:09:07.097Z,0.45
2018-09-04T10:11:36.191Z,0.40
2018-09-04T10:14:05.154Z,0.53
2018-09-04T10:16:34.150Z,0.60
2018-09-04T10:19:03.146Z,0.70
2018-09-04T10:21:32.447Z,0.60
2018-09-04T10:24:01.398Z,0.70
2018-09-04T10:26:30.390Z,0.57
2018-09-04T10:28:59.310Z,0.70
2018-09-04T10:31:28.266Z,0.60
2018-09-04T10:33:57.203Z,0.60
2018-09-04T10:36:26.201Z,0.50
2018-09-04T10:39:00.618Z,0.62
2018-09-04T10:41:29.598Z,0.53
2018-09-04T10:44:00.882Z,0.60
2018-09-04T10:46:30.542Z,0.60
2018-09-04T10:48:59.624Z,0.70
2018-09-04T10:51:28.588Z,0.60
2018-09-04T10:53:57.552Z,0.62
2018-09-04T10:56:26.568Z,0.60
2018-09-04T10:58:55.526Z,0.60
2018-09-04T11:01:24.545Z,0.50
2018-09-04T11:03:53.540Z,0.70
2018-09-04T11:06:22.551Z,0.50
2018-09-04T11:08:51.540Z,0.60
2018-09-04T11:11:20.493Z,0.57
2018-09-04T11:13:49.591Z,0.60
2018-09-04T11:16:18.501Z,0.60
2018-09-04T11:18:47.531Z,0.57
2018-09-04T11:21:16.490Z,0.60
2018-09-04T11:23:45.462Z,0.50
2018-09-04T11:26:14.395Z,0.42
2018-09-04T11:28:46.432Z,0.50
2018-09-04T11:31:15.371Z,0.50
2018-09-04T11:33:44.328Z,0.50
2018-09-04T11:36:13.276Z,0.60
2018-09-04T11:38:42.253Z,0.47
2018-09-04T11:41:11.232Z,0.53
2018-09-04T11:43:40.747Z,0.62
2018-09-04T11:46:09.673Z,0.70
2018-09-04T11:48:39.332Z,0.60
2018-09-04T11:51:10.464Z,0.70
2018-09-04T11:53:39.447Z,0.50
2018-09-04T11:56:08.419Z,0.60
2018-09-04T11:58:37.349Z,0.70
2018-09-04T12:01:10.116Z,0.70
2018-09-04T12:03:39.203Z,0.60
2018-09-04T12:06:08.168Z,0.47
2018-09-04T12:08:37.186Z,0.55
2018-09-04T12:11:06.230Z,0.50
2018-09-04T12:13:35.164Z,0.40
2018-09-04T12:16:04.090Z,0.50
2018-09-04T12:18:33.079Z,0.40
2018-09-04T12:21:04.595Z,0.50
2018-09-04T12:23:33.479Z,0.40
2018-09-04T12:26:03.652Z,0.43
2018-09-04T12:28:32.608Z,0.50
2018-09-04T12:31:01.932Z,0.40
2018-09-04T12:33:30.983Z,0.50
2018-09-04T12:36:00.006Z,0.60
2018-09-04T12:38:39.630Z,0.50
2018-09-04T12:41:15.217Z,0.50
2018-09-04T12:43:44.199Z,0.47
2018-09-04T12:46:13.162Z,0.42
2018-09-04T12:48:47.446Z,0.40
2018-09-04T12:51:16.511Z,0.55
2018-09-04T12:53:45.722Z,0.40
2018-09-04T12:56:14.655Z,0.57
2018-09-04T12:58:43.638Z,0.70
2018-09-04T13:01:12.697Z,0.68
2018-09-04T13:03:41.707Z,0.78
2018-09-04T13:06:10.680Z,0.72
2018-09-04T13:08:39.665Z,0.62
2018-09-04T13:11:08.632Z,0.70
2018-09-04T13:13:37.601Z,0.70
2018-09-04T13:16:06.699Z,0.70
2018-09-04T13:18:36.082Z,0.72
2018-09-04T13:21:06.067Z,0.70
2018-09-04T13:23:36.232Z,0.70
2018-09-04T13:26:05.769Z,0.70
2018-09-04T13:28:35.577Z,0.70
2018-09-04T13:31:04.923Z,0.60
2018-09-04T13:33:34.228Z,0.70
2018-09-04T13:36:03.622Z,0.70
2018-09-04T13:38:32.957Z,0.60
2018-09-04T13:41:08.699Z,0.60
2018-09-04T13:43:39.559Z,0.53
2018-09-04T13:46:09.021Z,0.62
2018-09-04T13:48:38.449Z,0.60
2018-09-04T13:51:08.903Z,0.60
2018-09-04T13:53:38.285Z,0.60
2018-09-04T13:56:07.607Z,0.70
2018-09-04T13:58:37.197Z,0.60
2018-09-04T14:01:07.896Z,0.70
2018-09-04T14:03:37.345Z,0.60
2018-09-04T14:06:07.023Z,0.70
2018-09-04T14:08:36.387Z,0.60
2018-09-04T14:11:06.226Z,0.70
2018-09-04T14:13:36.978Z,0.70
2018-09-04T14:16:09.727Z,0.70
2018-09-04T14:18:39.282Z,0.70
2018-09-04T14:21:08.960Z,0.70
2018-09-04T14:23:38.458Z,0.68
2018-09-04T14:26:07.913Z,0.65
2018-09-04T14:28:44.228Z,0.70
2018-09-04T14:31:06.705Z,0.60
2018-09-04T14:33:36.190Z,0.62
2018-09-04T14:36:05.486Z,0.70
2018-09-04T14:38:34.845Z,0.62
2018-09-04T14:41:04.966Z,0.60
2018-09-04T14:43:34.278Z,0.70
2018-09-04T14:46:03.822Z,0.60
2018-09-04T14:48:33.314Z,0.60
2018-09-04T14:51:02.687Z,0.60
2018-09-04T14:53:32.029Z,0.60
2018-09-04T14:56:01.427Z,0.70
2018-09-04T14:58:30.732Z,0.78
2018-09-04T15:01:00.028Z,0.70
2018-09-04T15:03:29.379Z,0.60
2018-09-04T15:05:58.794Z,0.57
2018-09-04T15:08:31.614Z,0.60
2018-09-04T15:11:02.436Z,0.60
2018-09-04T15:13:31.947Z,0.70
2018-09-04T15:16:01.247Z,0.57
2018-09-04T15:18:30.635Z,0.60
2018-09-04T15:21:01.081Z,0.60
2018-09-04T15:23:30.527Z,0.70
2018-09-04T15:25:59.934Z,0.62
2018-09-04T15:28:29.262Z,0.65
2018-09-04T15:30:58.596Z,0.70
2018-09-04T15:33:27.884Z,0.68
2018-09-04T15:35:57.170Z,0.50
2018-09-04T15:38:26.460Z,0.60
2018-09-04T15:40:55.812Z,0.60
2018-09-04T15:43:25.207Z,0.50
2018-09-04T15:45:54.575Z,0.50
2018-09-04T15:48:23.818Z,0.62
2018-09-04T15:50:53.264Z,0.50
2018-09-04T15:53:23.603Z,0.70
2018-09-04T15:55:52.913Z,0.40
2018-09-04T15:58:22.314Z,0.60
2018-09-04T16:00:51.919Z,0.57
2018-09-04T16:03:21.278Z,0.50
2018-09-04T16:05:50.700Z,0.50
2018-09-04T16:08:20.227Z,0.53
2018-09-04T16:10:49.860Z,0.50
2018-09-04T16:13:19.222Z,0.50
2018-09-04T16:15:48.566Z,0.60
2018-09-04T16:18:17.833Z,0.53
2018-09-04T16:20:47.274Z,0.60
2018-09-04T16:23:16.706Z,0.60
2018-09-04T16:25:46.084Z,0.60
2018-09-04T16:28:15.376Z,0.60
2018-09-04T16:30:44.835Z,0.50
2018-09-04T16:33:14.478Z,0.40
2018-09-04T16:35:43.782Z,0.43
2018-09-04T16:38:13.116Z,0.50
2018-09-04T16:40:42.448Z,0.50
2018-09-04T16:43:11.825Z,0.50
2018-09-04T16:45:41.351Z,0.50
2018-09-04T16:48:10.757Z,0.40
2018-09-04T16:50:40.478Z,0.50
2018-09-04T16:53:09.905Z,0.60
2018-09-04T16:55:39.258Z,0.40
2018-09-04T16:58:08.678Z,0.50
2018-09-04T17:00:38.387Z,0.50
2018-09-04T17:03:13.640Z,0.30
2018-09-04T17:05:43.261Z,0.50
2018-09-04T17:08:12.593Z,0.50
2018-09-04T17:10:42.003Z,0.40
2018-09-04T17:13:11.355Z,0.50
2018-09-04T17:15:40.652Z,0.37
2018-09-04T17:18:10.013Z,0.53
2018-09-04T17:20:39.459Z,0.43
2018-09-04T17:23:09.053Z,0.47
2018-09-04T17:25:38.358Z,0.53
2018-09-04T17:28:07.752Z,0.40
2018-09-04T17:30:37.068Z,0.40
2018-09-04T17:33:06.481Z,0.30
2018-09-04T17:35:35.739Z,0.30
2018-09-04T17:38:05.336Z,0.40
2018-09-04T17:40:34.638Z,0.33
2018-09-04T17:43:03.936Z,0.40
2018-09-04T17:45:33.243Z,0.57
2018-09-04T17:48:02.598Z,0.30
2018-09-04T17:50:31.902Z,0.40
2018-09-04T17:53:01.270Z,0.30
2018-09-04T17:55:31.016Z,0.30
2018-09-04T17:58:00.562Z,0.43
2018-09-04T18:00:30.057Z,0.50
2018-09-04T18:02:59.281Z,0.40
2018-09-04T18:05:28.621Z,0.30
2018-09-04T18:07:57.933Z,0.40
2018-09-04T18:10:27.295Z,0.37
2018-09-04T18:12:56.660Z,0.40
2018-09-04T18:15:26.131Z,0.40
2018-09-04T18:17:55.439Z,0.37
2018-09-04T18:20:24.448Z,0.50
2018-09-04T18:22:53.609Z,0.30
2018-09-04T18:25:22.629Z,0.30
2018-09-04T18:27:51.558Z,0.30
2018-09-04T18:30:20.572Z,0.40
2018-09-04T18:32:50.166Z,0.50
2018-09-04T18:35:19.174Z,0.50
2018-09-04T18:37:48.208Z,0.23
2018-09-04T18:40:17.221Z,0.40
2018-09-04T18:42:46.328Z,0.30
2018-09-04T18:45:26.695Z,0.33
2018-09-04T18:47:55.950Z,0.10
2018-09-04T18:50:24.945Z,0.30
2018-09-04T18:52:53.909Z,0.10
2018-09-04T18:55:22.947Z,0.30
2018-09-04T18:57:52.013Z,0.37
2018-09-04T19:00:21.192Z,0.30
2018-09-04T19:02:50.625Z,0.20
2018-09-04T19:05:19.849Z,0.30
2018-09-04T19:07:48.868Z,0.33
2018-09-04T19:10:17.905Z,0.30
2018-09-04T19:12:46.943Z,0.30
2018-09-04T19:15:16.017Z,0.30
2018-09-04T19:17:45.069Z,0.27
2018-09-04T19:20:14.127Z,0.40
2018-09-04T19:22:43.082Z,0.33
2018-09-04T19:25:12.685Z,0.40
2018-09-04T19:27:41.901Z,0.40
2018-09-04T19:30:10.910Z,0.40
2018-09-04T19:32:40.319Z,0.30
2018-09-04T19:35:09.552Z,0.40
2018-09-04T19:37:38.803Z,0.30
2018-09-04T19:40:08.525Z,0.30
2018-09-04T19:42:37.603Z,0.40
2018-09-04T19:45:07.503Z,0.30
2018-09-04T19:47:36.517Z,0.30
2018-09-04T19:50:06.712Z,0.30
2018-09-04T19:52:35.636Z,0.40
2018-09-04T19:55:04.602Z,0.30
2018-09-04T19:57:33.591Z,0.30
2018-09-04T20:00:02.529Z,0.30
2018-09-04T20:02:31.602Z,0.30
2018-09-04T20:05:00.519Z,0.40
2018-09-04T20:07:29.696Z,0.40
2018-09-04T20:09:58.671Z,0.40
2018-09-04T20:12:27.886Z,0.30
2018-09-04T20:14:56.898Z,0.40
2018-09-04T20:17:25.858Z,0.20
2018-09-04T20:19:54.974Z,0.20
2018-09-04T20:22:24.164Z,0.40
2018-09-04T20:24:53.154Z,0.30
2018-09-04T20:27:22.153Z,0.40
2018-09-04T20:29:51.332Z,0.40
2018-09-04T20:32:20.361Z,0.30
2018-09-04T20:34:49.613Z,0.40
2018-09-04T20:37:18.680Z,0.40
2018-09-04T20:39:47.615Z,0.43
2018-09-04T20:42:16.687Z,0.43
2018-09-04T20:44:45.690Z,0.40
2018-09-04T20:47:14.663Z,0.30
2018-09-04T20:49:43.615Z,0.30
2018-09-04T20:52:12.660Z,0.30
2018-09-04T20:54:41.637Z,0.40
2018-09-04T20:57:41.163Z,0.40
2018-09-04T21:00:24.123Z,0.40
2018-09-04T21:03:04.491Z,0.40
2018-09-04T21:05:44.881Z,0.50
2018-09-04T21:08:19.105Z,0.40
2018-09-04T21:10:48.916Z,0.30
2018-09-04T21:13:17.904Z,0.33
2018-09-04T21:15:46.930Z,0.30
2018-09-04T21:18:15.880Z,0.30
2018-09-04T21:20:44.807Z,0.40
2018-09-04T21:23:13.803Z,0.40
2018-09-04T21:25:42.873Z,0.40
2018-09-04T21:28:11.838Z,0.40
2018-09-04T21:30:40.871Z,0.30
2018-09-04T21:33:09.856Z,0.40
2018-09-04T21:35:38.897Z,0.50
2018-09-04T21:38:07.843Z,0.40
2018-09-04T21:40:36.782Z,0.43
2018-09-04T21:43:05.832Z,0.40
2018-09-04T21:45:34.743Z,0.33
2018-09-04T21:48:03.686Z,0.50
2018-09-04T21:50:32.644Z,0.43
2018-09-04T21:53:01.585Z,0.50
2018-09-04T21:55:30.588Z,0.47
2018-09-04T21:57:59.536Z,0.30
2018-09-04T22:00:28.920Z,0.20
2018-09-04T22:02:58.565Z,0.30
2018-09-04T22:05:27.759Z,0.40
2018-09-04T22:07:57.734Z,0.30
2018-09-04T22:10:27.519Z,0.30
2018-09-04T22:12:56.804Z,0.30
2018-09-04T22:15:25.762Z,0.40
2018-09-04T22:17:54.723Z,0.20
2018-09-04T22:20:23.858Z,0.30
2018-09-04T22:22:52.772Z,0.20
2018-09-04T22:25:21.678Z,0.20
2018-09-04T22:27:50.727Z,0.30
2018-09-04T22:30:19.670Z,0.30
2018-09-04T22:32:48.653Z,0.30
2018-09-04T22:35:17.589Z,0.30
2018-09-04T22:37:46.552Z,0.27
2018-09-04T22:40:15.460Z,0.30
2018-09-04T22:42:44.395Z,0.40
2018-09-04T22:45:13.343Z,0.50
2018-09-04T22:47:42.693Z,0.30
2018-09-04T22:50:16.952Z,0.30
2018-09-04T22:52:45.876Z,0.33
2018-09-04T22:55:14.839Z,0.30
2018-09-04T22:57:44.604Z,0.20
2018-09-04T23:00:43.539Z,0.40
2018-09-04T23:03:12.470Z,0.43
2018-09-04T23:05:41.399Z,0.40
2018-09-04T23:08:10.347Z,0.30
2018-09-04T23:10:39.267Z,0.30
2018-09-04T23:13:08.201Z,0.30
2018-09-04T23:15:44.321Z,0.30
2018-09-04T23:18:13.771Z,0.40
2018-09-04T23:20:42.741Z,0.37
2018-09-04T23:23:11.658Z,0.20
2018-09-04T23:25:40.677Z,0.17
2018-09-04T23:28:09.732Z,0.27
2018-09-04T23:30:38.761Z,0.30
2018-09-04T23:33:07.706Z,0.30
2018-09-04T23:35:36.624Z,0.20
2018-09-04T23:38:05.585Z,0.20
2018-09-04T23:40:35.556Z,0.27
2018-09-04T23:43:04.575Z,0.30
2018-09-04T23:45:33.596Z,0.37
2018-09-04T23:48:02.545Z,0.30
2018-09-04T23:50:32.438Z,0.30
2018-09-04T23:53:01.366Z,0.27
2018-09-04T23:55:30.806Z,0.37
2018-09-04T23:57:59.713Z,0.30
